Aeroporto :
LOGIN :

Iscrizione | Disclaimer

   EN    FR    IT 

 










Sommario :    VFR   VFR Marginale   IFR   IFR Intensivo   IFR Molto Intensivo
Visibilità : 
Base nubi : 
>= 8 km
>= 3000ft
5 / 8 km
1000 / 3000 ft
1500m / 5 km
500 / 1000 ft
800 / 1500m
200 / 500 ft
< 800m
< 200 ft
Simboli :   Temporali  Nebbia  Neve Forte  Precipitazioni Forti  Vento > 20 kt
SIGMETs :   Varie  Temporali  Ghiacco  Turbolenza  Onda orograficha  Ceneri Vulcaniche






- Altitudine del aeroporto : 20 ft
- Codice IATA : DLM


LTBS - Dalaman

ULTIMO METAR :
  • 310050Z 05004KT CAVOK 12/11 Q1017 NOSIG RMK RWY19 34003KT

METARs OBSOLETI :
  • 310020Z 04005KT CAVOK 12/11 Q1016 NOSIG RMK RWY19 36003KT
  • 302350Z 09004KT CAVOK 13/11 Q1016 NOSIG RMK RWY19 01004KT
  • 302320Z 10005KT 060V120 CAVOK 13/11 Q1017 NOSIG RMK RWY19 36004KT 330V030
  • 302250Z VRB02KT CAVOK 14/12 Q1017 NOSIG RMK RWY19 32005KT
  • 302220Z 05004KT CAVOK 13/11 Q1017 NOSIG RMK RWY19 33005KT

TAF TAF LTBS
Valido dal 31 a 00 ore il 01 a 00 ore UTC


302240Z 3100/3124 VRB02KT CAVOK
BECMG 3106/3108 21012KT SCT030 BKN120
BECMG 3115/3117 VRB02KT



MetMap, La meteo Aeronautica in un colpo d'occhio ! - Copyright ORBIFLY Dicembre 2007 - Disclaimer

ORBIFLY MET'MAP TEAM :

Programmazione e sviluppo : Alexandra Zaïnal
Concezione : Baudouin d'Aumeries
Aiuto per la programmazione : Marc-Olivier Méhu
Supporto tecnico e logistico : Manuel Goepfert
Aiuto per la traduzione : Arnaldo La Scala

Contatto : metmap@orbifly.com




FONTI E CREDITI :

   NOAA